Grant Airport

CSX5 · Quebec, 加拿大

罗盘
风向 的 风向 160° Grant Airport 15/33
风向 到 风: 15 kt, 阵阵 20 kt, 4 beaufort

14 kt

6 kt
改变
0 ft 1.000 2.000 3.000 4.000 5.000
Cloud Cloud Cloud Cloud Cloud Cloud
BKN 3.600
Cloud Cloud Cloud Cloud Cloud Cloud Cloud Cloud
OVC 4.500
METAR CYHU 221504Z AUTO 16015G20KT 9SM -SN BKN036 OVC045 00/M02 A2982 RMK PRESFR SLP102

METAR Grant Airport - CSX5

Grant Airport是,加拿大中的小机场。 该机场位于纬度45,47112和经度-73,19871。 该机场有一条跑道: 15/33. 该机场的伪ICAO代码为CSX5。 机场在Montreal FIR中。

该航空气象观测是针对Montréal / Saint-Hubert Airport在2024年2月22日 10:04, 当地时间进行的。

机场观察

风向为160°,速度为15 kt。 已测得20 kt的阵风。

可见度为9 mi。

有碎云在3.600 ft的高度 和 乌云密布在4.500 ft的高度。 破损或更高的上限为3.600 ft。

当前天气为光 雪。 温度为0 °C,阵风为-8 °C。 露点为-2 °C,相对湿度为87%。 海平面上的气压为29,82 inHg (QNH)。

白天

今天,太阳从06:43升起,在17:29降落。 这适用于Grant Airport,世界夏令时可能有所不同。 当地时间与世界标准时间之间的时差为-5 小时。 当前,没有夏令时有效。

公司介绍

我们没有关于这个机场的公司信息。

体会

到Vliegles.nl去找飞行课程,跳伞和其他飞行体验。 浏览页面,了解Grant Airport附近所有可用的活动。 你也可以使用搜索功能来寻找你所在地附近的特定飞行课程、跳伞或其他飞行体验。

跑道

Id 标题 侧风 逆风 侧风 %
15/33 137°-317° 6-8 kt 14-18 kt 39 %

逆风成分最大的方向会被突出显示,并用于横风计算。 这并不一定意味着这个方向在使用。

乌云

3.600 ft BKN 碎云
4.500 ft OVC 乌云密布

温度 & 天气

天气 光 雪
温度 0 °C
露点 -2 °C
相对湿度 87%
风寒 -8 °C
Kp-index 0 (0-9)

评论

PRESFR气压迅速下降
SLP102海平面压力为29,83 inHg (29,83 inHg)

白天

日出
06:44
中午
12:07
日落
17:29 (7:13)

小工具

你想在你的网站上有一个关于Grant Airport的当前航空天气(METAR)的小部件吗?

显示HTML代码
?>